createdAt,value
2018-10-21T00:02:19.841Z,99406.58
2018-10-21T00:05:23.933Z,99406.85
2018-10-21T00:08:28.067Z,99413.69
2018-10-21T00:11:32.210Z,99404.31
2018-10-21T00:14:36.363Z,99400.77
2018-10-21T00:17:40.494Z,99404.83
2018-10-21T00:20:44.682Z,99413.37
2018-10-21T00:23:48.808Z,99411.72
2018-10-21T00:26:52.958Z,99411.12
2018-10-21T00:29:57.121Z,99414.31
2018-10-21T00:33:01.301Z,99413.77
2018-10-21T00:36:05.904Z,99413.17
2018-10-21T00:39:12.322Z,99409.41
2018-10-21T00:42:16.378Z,99402.05
2018-10-21T00:45:20.583Z,99399.66
2018-10-21T00:48:24.687Z,99394.52
2018-10-21T00:51:28.774Z,99393.61
2018-10-21T00:54:32.879Z,99394.52
2018-10-21T00:57:36.974Z,99393.41
2018-10-21T01:00:41.077Z,99386.27
2018-10-21T01:03:45.162Z,99382.02
2018-10-21T01:06:49.279Z,99388.58
2018-10-21T01:09:53.381Z,99392.48
2018-10-21T01:12:57.481Z,99379.34
2018-10-21T01:16:01.743Z,99390.12
2018-10-21T01:19:06.274Z,99386.09
2018-10-21T01:22:10.384Z,99381.34
2018-10-21T01:25:14.503Z,99383.20
2018-10-21T01:28:18.599Z,99381.34
2018-10-21T01:31:22.703Z,99379.53
2018-10-21T01:34:27.002Z,99376.70
2018-10-21T01:37:31.107Z,99371.88
2018-10-21T01:40:37.187Z,99370.18
2018-10-21T01:43:41.291Z,99365.20
2018-10-21T01:46:45.386Z,99363.30
2018-10-21T01:49:49.539Z,99353.91
2018-10-21T01:52:54.375Z,99367.00
2018-10-21T01:55:58.518Z,99359.59
2018-10-21T01:59:02.663Z,99353.16
2018-10-21T02:02:06.811Z,99351.60
2018-10-21T02:05:10.956Z,99345.06
2018-10-21T02:08:15.093Z,99347.02
2018-10-21T02:11:19.225Z,99341.33
2018-10-21T02:14:23.367Z,99351.75
2018-10-21T02:17:27.525Z,99353.98
2018-10-21T02:20:31.670Z,99343.89
2018-10-21T02:23:35.881Z,99342.80
2018-10-21T02:26:40.048Z,99338.06
2018-10-21T02:29:44.482Z,99347.08
2018-10-21T02:32:49.325Z,99346.59
2018-10-21T02:35:53.463Z,99345.68
2018-10-21T02:38:57.654Z,99338.06
2018-10-21T02:42:01.744Z,99341.06
2018-10-21T02:45:06.023Z,99340.97
2018-10-21T02:48:10.130Z,99344.68
2018-10-21T02:51:14.396Z,99342.89
2018-10-21T02:54:22.639Z,99343.07
2018-10-21T02:57:26.771Z,99315.50
2018-10-21T03:00:30.916Z,99315.73
2018-10-21T03:03:35.060Z,99322.63
2018-10-21T03:06:39.198Z,99320.02
2018-10-21T03:09:43.328Z,99320.42
2018-10-21T03:12:47.466Z,99313.58
2018-10-21T03:15:51.596Z,99324.38
2018-10-21T03:18:55.752Z,99328.95
2018-10-21T03:21:59.891Z,99336.39
2018-10-21T03:25:04.043Z,99343.55
2018-10-21T03:28:08.186Z,99344.50
2018-10-21T03:31:12.390Z,99353.35
2018-10-21T03:34:16.514Z,99353.98
2018-10-21T03:37:20.659Z,99349.60
2018-10-21T03:40:24.807Z,99344.19
2018-10-21T03:43:28.956Z,99351.52
2018-10-21T03:46:33.086Z,99355.63
2018-10-21T03:49:37.242Z,99361.00
2018-10-21T03:52:41.389Z,99358.33
2018-10-21T03:55:45.561Z,99358.10
2018-10-21T03:58:49.702Z,99368.70
2018-10-21T04:01:53.850Z,99365.44
2018-10-21T04:04:57.997Z,99366.48
2018-10-21T04:08:02.131Z,99373.33
2018-10-21T04:11:06.390Z,99367.94
2018-10-21T04:14:10.523Z,99352.63
2018-10-21T04:17:14.662Z,99350.06
2018-10-21T04:20:18.785Z,99348.38
2018-10-21T04:23:22.925Z,99346.98
2018-10-21T04:26:27.078Z,99360.71
2018-10-21T04:29:31.227Z,99354.94
2018-10-21T04:32:36.350Z,99360.42
2018-10-21T04:35:40.570Z,99365.72
2018-10-21T04:40:09.183Z,99362.23
2018-10-21T04:43:13.385Z,99359.78
2018-10-21T04:46:17.611Z,99360.48
2018-10-21T04:49:21.697Z,99357.09
2018-10-21T04:52:26.190Z,99357.38
2018-10-21T04:55:30.345Z,99360.77
2018-10-21T04:58:34.474Z,99361.31
2018-10-21T05:01:38.622Z,99357.22
2018-10-21T05:04:42.767Z,99349.80
2018-10-21T05:07:46.927Z,99350.55
2018-10-21T05:10:51.074Z,99355.02
2018-10-21T05:13:55.222Z,99351.94
2018-10-21T05:16:59.374Z,99345.45
2018-10-21T05:20:03.519Z,99329.52
2018-10-21T05:23:07.661Z,99326.10
2018-10-21T05:26:11.794Z,99323.00
2018-10-21T05:29:15.938Z,99311.66
2018-10-21T05:32:20.096Z,99312.73
2018-10-21T05:35:24.233Z,99306.08
2018-10-21T05:38:28.370Z,99312.95
2018-10-21T05:41:32.499Z,99317.57
2018-10-21T05:44:36.645Z,99329.25
2018-10-21T05:47:41.207Z,99323.36
2018-10-21T05:50:45.372Z,99333.75
2018-10-21T05:53:49.518Z,99339.03
2018-10-21T05:56:53.646Z,99328.41
2018-10-21T05:59:57.850Z,99333.13
2018-10-21T06:03:02.155Z,99331.20
2018-10-21T06:06:06.190Z,99335.55
2018-10-21T06:09:11.870Z,99337.00
2018-10-21T06:12:16.031Z,99336.38
2018-10-21T06:15:20.179Z,99334.90
2018-10-21T06:18:26.582Z,99334.31
2018-10-21T06:21:30.730Z,99336.64
2018-10-21T06:24:34.885Z,99349.45
2018-10-21T06:27:39.844Z,99350.56
2018-10-21T06:30:43.978Z,99358.59
2018-10-21T06:33:48.196Z,99363.17
2018-10-21T06:36:52.380Z,99369.16
2018-10-21T06:39:56.522Z,99365.02
2018-10-21T06:43:00.658Z,99378.73
2018-10-21T06:46:04.800Z,99385.13
2018-10-21T06:49:09.020Z,99382.02
2018-10-21T06:52:13.440Z,99383.89
2018-10-21T06:55:17.584Z,99382.05
2018-10-21T06:58:21.734Z,99386.78
2018-10-21T07:01:25.890Z,99390.50
2018-10-21T07:04:30.062Z,99388.82
2018-10-21T07:07:34.190Z,99381.55
2018-10-21T07:10:38.350Z,99387.48
2018-10-21T07:13:42.717Z,99385.98
2018-10-21T07:16:46.925Z,99381.08
2018-10-21T07:19:51.022Z,99383.22
2018-10-21T07:22:55.158Z,99385.35
2018-10-21T07:25:59.494Z,99386.42
2018-10-21T07:29:03.638Z,99384.77
2018-10-21T07:32:07.794Z,99390.34
2018-10-21T07:35:13.587Z,99388.98
2018-10-21T07:38:17.721Z,99393.24
2018-10-21T07:41:21.866Z,99389.54
2018-10-21T07:44:26.020Z,99395.55
2018-10-21T07:47:30.162Z,99396.53
2018-10-21T07:50:34.306Z,99400.66
2018-10-21T07:53:38.439Z,99385.08
2018-10-21T07:56:42.581Z,99382.55
2018-10-21T07:59:47.732Z,99385.45
2018-10-21T08:02:51.870Z,99378.49
2018-10-21T08:06:26.387Z,99375.30
2018-10-21T08:09:30.529Z,99380.93
2018-10-21T08:12:34.673Z,99379.81
2018-10-21T08:15:39.191Z,99379.98
2018-10-21T08:18:43.313Z,99379.05
2018-10-21T08:21:47.450Z,99377.50
2018-10-21T08:24:51.610Z,99375.27
2018-10-21T08:27:55.769Z,99387.08
2018-10-21T08:30:59.911Z,99387.75
2018-10-21T08:34:04.100Z,99389.39
2018-10-21T08:37:08.206Z,99395.06
2018-10-21T08:40:12.415Z,99396.79
2018-10-21T08:43:16.486Z,99403.80
2018-10-21T08:46:20.731Z,99384.22
2018-10-21T08:49:24.826Z,99384.78
2018-10-21T08:52:28.949Z,99384.16
2018-10-21T08:55:33.097Z,99388.41
2018-10-21T08:58:37.250Z,99388.59
2018-10-21T09:01:41.402Z,99373.86
2018-10-21T09:04:45.562Z,99373.28
2018-10-21T09:07:49.784Z,99374.89
2018-10-21T09:10:53.951Z,99373.20
2018-10-21T09:13:58.162Z,99372.05
2018-10-21T09:17:02.269Z,99371.08
2018-10-21T09:20:09.362Z,99371.66
2018-10-21T09:23:13.506Z,99370.55
2018-10-21T09:26:17.693Z,99377.09
2018-10-21T09:29:21.838Z,99371.59
2018-10-21T09:32:25.990Z,99368.69
2018-10-21T09:35:30.142Z,99370.63
2018-10-21T09:38:34.314Z,99367.59
2018-10-21T09:41:38.477Z,99364.89
2018-10-21T09:44:42.619Z,99359.53
2018-10-21T09:47:46.861Z,99358.17
2018-10-21T09:50:50.989Z,99350.34
2018-10-21T09:53:55.140Z,99345.23
2018-10-21T09:56:59.325Z,99352.78
2018-10-21T10:00:03.455Z,99341.36
2018-10-21T10:03:08.863Z,99345.36
2018-10-21T10:06:13.021Z,99329.60
2018-10-21T10:09:17.175Z,99329.84
2018-10-21T10:12:21.334Z,99318.70
2018-10-21T10:15:25.480Z,99317.44
2018-10-21T10:18:29.680Z,99319.06
2018-10-21T10:21:33.854Z,99314.17
2018-10-21T10:24:38.006Z,99311.50
2018-10-21T10:27:42.234Z,99309.34
2018-10-21T10:30:46.403Z,99303.66
2018-10-21T10:33:50.545Z,99294.94
2018-10-21T10:36:54.750Z,99290.63
2018-10-21T10:39:58.904Z,99284.53
2018-10-21T10:43:03.024Z,99284.39
2018-10-21T10:46:07.216Z,99284.30
2018-10-21T10:49:11.375Z,99283.88
2018-10-21T10:52:15.574Z,99276.17
2018-10-21T10:55:19.642Z,99271.92
2018-10-21T10:58:23.805Z,99268.48
2018-10-21T11:01:27.938Z,99262.51
2018-10-21T11:04:32.074Z,99259.31
2018-10-21T11:07:36.226Z,99259.44
2018-10-21T11:10:40.468Z,99258.16
2018-10-21T11:13:44.602Z,99259.41
2018-10-21T11:16:48.813Z,99256.45
2018-10-21T11:19:52.938Z,99251.14
2018-10-21T11:22:57.251Z,99253.95
2018-10-21T11:26:01.527Z,99244.41
2018-10-21T11:29:05.914Z,99247.33
2018-10-21T11:32:10.110Z,99244.13
2018-10-21T11:35:14.198Z,99235.24
2018-10-21T11:38:18.444Z,99239.16
2018-10-21T11:41:22.833Z,99227.09
2018-10-21T11:44:26.958Z,99223.53
2018-10-21T11:47:31.098Z,99217.50
2018-10-21T11:50:35.259Z,99213.59
2018-10-21T11:53:39.401Z,99216.63
2018-10-21T11:56:43.556Z,99212.16
2018-10-21T11:59:47.675Z,99205.36
2018-10-21T12:02:51.812Z,99197.42
2018-10-21T12:05:56.006Z,99199.28
2018-10-21T12:09:00.188Z,99192.80
2018-10-21T12:12:04.331Z,99190.14
2018-10-21T12:15:08.570Z,99191.30
2018-10-21T12:18:12.769Z,99188.59
2018-10-21T12:21:17.022Z,99189.84
2018-10-21T12:24:21.258Z,99188.59
2018-10-21T12:27:26.124Z,99186.54
2018-10-21T12:30:30.270Z,99179.88
2018-10-21T12:33:38.660Z,99180.72
2018-10-21T12:36:42.815Z,99174.00
2018-10-21T12:39:47.119Z,99171.77
2018-10-21T12:42:51.293Z,99162.67
2018-10-21T12:45:55.522Z,99157.05
2018-10-21T12:48:59.732Z,99158.95
2018-10-21T12:52:03.855Z,99156.47
2018-10-21T12:55:09.153Z,99155.95
2018-10-21T12:58:13.382Z,99153.20
2018-10-21T13:01:17.554Z,99143.44
2018-10-21T13:04:21.602Z,99141.11
2018-10-21T13:07:25.757Z,99143.32
2018-10-21T13:10:29.909Z,99134.95
2018-10-21T13:13:34.067Z,99136.67
2018-10-21T13:16:38.252Z,99132.42
2018-10-21T13:19:43.351Z,99127.98
2018-10-21T13:22:47.425Z,99128.69
2018-10-21T13:25:51.598Z,99123.53
2018-10-21T13:28:55.834Z,99118.43
2018-10-21T13:31:59.914Z,99123.92
2018-10-21T13:35:04.058Z,99120.65
2018-10-21T13:38:08.259Z,99123.08
2018-10-21T13:41:12.430Z,99113.56
2018-10-21T13:44:16.631Z,99107.16
2018-10-21T13:47:20.840Z,99113.34
2018-10-21T13:50:25.076Z,99101.87
2018-10-21T13:53:29.322Z,99100.97
2018-10-21T13:56:33.417Z,99099.75
2018-10-21T13:59:37.563Z,99103.47
2018-10-21T14:02:41.704Z,99102.59
2018-10-21T14:05:45.841Z,99096.52
2018-10-21T14:08:50.079Z,99100.14
2018-10-21T14:11:54.258Z,99094.18
2018-10-21T14:14:58.869Z,99100.17
2018-10-21T14:18:02.955Z,99094.32
2018-10-21T14:21:07.075Z,99100.66
2018-10-21T14:24:11.319Z,99088.24
2018-10-21T14:27:15.374Z,99090.34
2018-10-21T14:30:19.559Z,99084.59
2018-10-21T14:33:23.753Z,99087.42
2018-10-21T14:36:27.898Z,99080.07
2018-10-21T14:39:32.055Z,99080.03
2018-10-21T14:42:36.251Z,99083.73
2018-10-21T14:45:40.467Z,99078.99
2018-10-21T14:48:44.590Z,99081.56
2018-10-21T14:51:48.755Z,99084.56
2018-10-21T14:54:52.891Z,99072.43
2018-10-21T14:57:57.064Z,99070.62
2018-10-21T15:01:01.198Z,99069.33
2018-10-21T15:04:05.692Z,99070.28
2018-10-21T15:07:09.826Z,99068.11
2018-10-21T15:10:14.009Z,99070.91
2018-10-21T15:13:18.210Z,99064.67
2018-10-21T15:16:22.350Z,99067.41
2018-10-21T15:19:26.513Z,99068.15
2018-10-21T15:22:30.678Z,99068.04
2018-10-21T15:25:34.824Z,99067.41
2018-10-21T15:28:38.953Z,99064.23
2018-10-21T15:31:43.077Z,99059.98
2018-10-21T15:34:47.399Z,99064.47
2018-10-21T15:37:51.396Z,99059.73
2018-10-21T15:40:55.566Z,99064.41
2018-10-21T15:43:59.789Z,99058.27
2018-10-21T15:47:03.889Z,99059.70
2018-10-21T15:50:08.479Z,99063.48
2018-10-21T15:53:12.572Z,99058.43
2018-10-21T15:56:16.837Z,99066.15
2018-10-21T15:59:20.875Z,99068.61
2018-10-21T16:02:25.139Z,99067.35
2018-10-21T16:05:29.230Z,99062.47
2018-10-21T16:08:33.367Z,99066.30
2018-10-21T16:11:37.511Z,99066.41
2018-10-21T16:14:41.669Z,99063.85
2018-10-21T16:17:46.495Z,99069.31
2018-10-21T16:20:50.765Z,99069.12
2018-10-21T16:23:54.918Z,99067.86
2018-10-21T16:26:59.199Z,99083.35
2018-10-21T16:30:03.348Z,99075.79
2018-10-21T16:33:07.478Z,99075.27
2018-10-21T16:36:11.649Z,99079.06
2018-10-21T16:39:15.930Z,99077.30
2018-10-21T16:42:19.994Z,99079.88
2018-10-21T16:45:24.205Z,99079.17
2018-10-21T16:48:28.345Z,99083.29
2018-10-21T16:51:32.601Z,99093.31
2018-10-21T16:54:36.725Z,99091.70
2018-10-21T16:57:40.901Z,99095.46
2018-10-21T17:00:45.316Z,99096.52
2018-10-21T17:03:49.541Z,99101.37
2018-10-21T17:06:53.669Z,99099.48
2018-10-21T17:09:58.387Z,99105.95
2018-10-21T17:13:02.203Z,99106.70
2018-10-21T17:16:07.977Z,99103.42
2018-10-21T17:19:12.122Z,99109.25
2018-10-21T17:22:16.361Z,99109.22
2018-10-21T17:25:20.429Z,99102.41
2018-10-21T17:28:24.699Z,99105.28
2018-10-21T17:31:28.898Z,99103.06
2018-10-21T17:34:33.115Z,99105.17
2018-10-21T17:37:37.332Z,99104.38
2018-10-21T17:40:41.579Z,99107.31
2018-10-21T17:43:45.689Z,99108.25
2018-10-21T17:46:49.858Z,99112.42
2018-10-21T17:49:54.118Z,99119.34
2018-10-21T17:52:58.345Z,99117.42
2018-10-21T17:56:02.526Z,99118.34
2018-10-21T17:59:06.792Z,99117.94
2018-10-21T18:02:10.970Z,99120.45
2018-10-21T18:05:15.479Z,99119.51
2018-10-21T18:08:19.746Z,99121.28
2018-10-21T18:11:24.160Z,99127.17
2018-10-21T18:14:28.351Z,99127.66
2018-10-21T18:17:32.518Z,99123.23
2018-10-21T18:20:36.791Z,99118.88
2018-10-21T18:23:40.925Z,99118.44
2018-10-21T18:26:45.202Z,99123.50
2018-10-21T18:29:49.405Z,99128.51
2018-10-21T18:32:53.619Z,99126.51
2018-10-21T18:35:57.729Z,99124.36
2018-10-21T18:39:01.959Z,99121.33
2018-10-21T18:42:06.462Z,99125.50
2018-10-21T18:45:12.686Z,99128.27
2018-10-21T18:48:16.889Z,99130.88
2018-10-21T18:51:20.961Z,99124.41
2018-10-21T18:54:25.123Z,99121.86
2018-10-21T18:57:29.264Z,99123.09
2018-10-21T19:00:33.429Z,99124.75
2018-10-21T19:03:37.608Z,99125.98
2018-10-21T19:06:41.754Z,99128.27
2018-10-21T19:09:45.892Z,99127.97
2018-10-21T19:13:00.046Z,99126.68
2018-10-21T19:15:54.270Z,99134.47
2018-10-21T19:18:58.622Z,99133.36
2018-10-21T19:22:02.862Z,99137.20
2018-10-21T19:25:09.132Z,99133.63
2018-10-21T19:28:13.303Z,99133.83
2018-10-21T19:31:17.525Z,99137.45
2018-10-21T19:34:22.100Z,99140.75
2018-10-21T19:37:26.106Z,99141.05
2018-10-21T19:40:30.297Z,99132.97
2018-10-21T19:43:34.483Z,99140.09
2018-10-21T19:46:38.587Z,99142.43
2018-10-21T19:49:42.738Z,99133.59
2018-10-21T19:52:46.910Z,99136.96
2018-10-21T19:55:51.062Z,99140.61
2018-10-21T19:58:55.219Z,99144.41
2018-10-21T20:01:59.392Z,99150.16
2018-10-21T20:05:03.514Z,99150.23
2018-10-21T20:08:09.190Z,99151.05
2018-10-21T20:11:14.369Z,99152.05
2018-10-21T20:14:19.593Z,99155.17
2018-10-21T20:17:24.932Z,99151.63
2018-10-21T20:20:30.058Z,99147.70
2018-10-21T20:23:35.317Z,99151.53
2018-10-21T20:26:39.475Z,99157.91
2018-10-21T20:29:43.633Z,99163.19
2018-10-21T20:32:47.932Z,99158.02
2018-10-21T20:35:52.067Z,99165.98
2018-10-21T20:38:56.307Z,99167.91
2018-10-21T20:42:00.509Z,99164.11
2018-10-21T20:45:04.603Z,99162.84
2018-10-21T20:48:08.846Z,99167.18
2018-10-21T20:51:12.924Z,99170.73
2018-10-21T20:54:17.368Z,99174.03
2018-10-21T20:57:21.670Z,99173.52
2018-10-21T21:00:25.826Z,99179.17
2018-10-21T21:03:30.137Z,99176.48
2018-10-21T21:06:34.283Z,99184.19
2018-10-21T21:09:39.387Z,99183.17
2018-10-21T21:12:43.575Z,99188.73
2018-10-21T21:15:47.805Z,99191.41
2018-10-21T21:18:52.394Z,99192.39
2018-10-21T21:21:56.800Z,99194.86
2018-10-21T21:25:01.395Z,99196.94
2018-10-21T21:28:07.805Z,99196.74
2018-10-21T21:31:12.097Z,99194.12
2018-10-21T21:34:16.924Z,99195.17
2018-10-21T21:37:20.975Z,99196.91
2018-10-21T21:40:25.226Z,99196.03
2018-10-21T21:43:29.746Z,99189.59
2018-10-21T21:46:34.041Z,99188.60
2018-10-21T21:49:38.174Z,99185.86
2018-10-21T21:52:42.311Z,99177.30
2018-10-21T21:55:46.474Z,99177.70
2018-10-21T21:58:50.683Z,99178.27
2018-10-21T22:01:54.950Z,99174.93
2018-10-21T22:04:59.182Z,99167.75
2018-10-21T22:08:03.362Z,99165.98
2018-10-21T22:11:07.458Z,99172.22
2018-10-21T22:14:11.827Z,99170.25
2018-10-21T22:17:15.984Z,99170.84
2018-10-21T22:20:20.126Z,99165.05
2018-10-21T22:23:24.368Z,99159.58
2018-10-21T22:26:28.507Z,99160.69
2018-10-21T22:29:32.647Z,99162.09
2018-10-21T22:32:36.852Z,99162.69
2018-10-21T22:35:40.973Z,99169.94
2018-10-21T22:38:45.111Z,99162.88
2018-10-21T22:41:49.261Z,99151.12
2018-10-21T22:44:53.400Z,99153.35
2018-10-21T22:47:57.537Z,99155.48
2018-10-21T22:51:01.678Z,99152.45
2018-10-21T22:54:05.949Z,99155.56
2018-10-21T22:57:15.433Z,99161.55
2018-10-21T23:00:19.614Z,99156.81
2018-10-21T23:03:23.712Z,99152.59
2018-10-21T23:06:27.851Z,99157.92
2018-10-21T23:09:31.986Z,99151.12
2018-10-21T23:12:36.115Z,99157.78
2018-10-21T23:15:40.242Z,99158.16
2018-10-21T23:18:44.469Z,99164.36
2018-10-21T23:21:48.522Z,99164.13
2018-10-21T23:24:52.649Z,99159.25
2018-10-21T23:27:56.831Z,99165.09
2018-10-21T23:31:00.942Z,99158.16
2018-10-21T23:34:05.579Z,99153.91
2018-10-21T23:37:09.654Z,99160.94
2018-10-21T23:40:13.916Z,99157.37
2018-10-21T23:43:17.950Z,99156.03
2018-10-21T23:46:28.645Z,99159.38
2018-10-21T23:49:32.792Z,99156.17
2018-10-21T23:52:36.942Z,99157.33
2018-10-21T23:55:41.078Z,99154.70
2018-10-21T23:58:45.225Z,99146.45
